| Date | Time | Temp. (oF) | Dew Point (oF) | Rel. Hum. (%) | Press. (in.) | Wind Dir. | Wind Speed (mph) | Hourly Rainfall (in.) |
|
|---|---|---|---|---|---|---|---|---|---|
| 1 | 09/09 | 00:00 | 80 | 70 | 73 | 29.80 | SSE | 0 | 0.00 |
| 2 | 09/08 | 23:00 | 80 | 69 | 71 | 29.80 | SSE | 0 | 0.00 |
| 3 | 09/08 | 22:00 | 81 | 70 | 70 | 29.80 | S | 2 | 0.00 |
| 4 | 09/08 | 21:00 | 81 | 69 | 68 | 29.78 | SSE | 0 | 0.00 |
| 5 | 09/08 | 20:00 | 84 | 69 | 61 | 29.77 | SSE | 3 | 0.00 |
| 6 | 09/08 | 19:00 | 88 | 66 | 50 | 29.77 | S | 4 | 0.00 |
| 7 | 09/08 | 18:00 | 90 | 66 | 47 | 29.74 | S | 7 | 0.00 |
| 8 | 09/08 | 17:00 | 92 | 68 | 47 | 29.74 | S | 4 | 0.00 |
| 9 | 09/08 | 16:00 | 91 | 70 | 52 | 29.76 | SSE | 10 | 0.00 |
| 10 | 09/08 | 15:00 | 92 | 69 | 49 | 29.79 | SSE | 4 | 0.00 |
| 11 | 09/08 | 14:00 | 91 | 71 | 53 | 29.81 | SW | 0 | 0.00 |
| 12 | 09/08 | 13:00 | 91 | 72 | 56 | 29.83 | SW | 0 | 0.00 |
| 13 | 09/08 | 12:00 | 88 | 74 | 65 | 29.85 | SW | 5 | 0.00 |
| 14 | 09/08 | 11:00 | 85 | 74 | 70 | 29.87 | N | 4 | 0.00 |
| 15 | 09/08 | 10:00 | 80 | 74 | 83 | 29.87 | S | 2 | 0.01 |
| 16 | 09/08 | 09:00 | 75 | 73 | 95 | 29.88 | N | 0 | 0.00 |
| 17 | 09/08 | 08:00 | 72 | 72 | 100 | 29.87 | ESE | 0 | 0.00 |
| 18 | 09/08 | 07:00 | 71 | 71 | 100 | 29.86 | SE | 0 | 0.00 |
| 19 | 09/08 | 06:00 | 71 | 70 | 98 | 29.85 | S | 2 | 0.00 |
| 20 | 09/08 | 05:00 | 71 | 70 | 97 | 29.84 | SSE | 0 | 0.00 |
| 21 | 09/08 | 04:00 | 72 | 69 | 93 | 29.84 | SE | 0 | 0.01 |
| 22 | 09/08 | 03:00 | 73 | 71 | 94 | 29.85 | SSW | 0 | 0.05 |
| 23 | 09/08 | 02:00 | 73 | 68 | 87 | 29.88 | N | 2 | 0.02 |
| 24 | 09/08 | 01:00 | 74 | 69 | 86 | 29.88 | SW | 0 | 0.00 |